Terminal Aerodrome Forecast
Issued by NWS Wilmington, OH

Current Version | Previous Version | Text Only | Print | Product List | Glossary Off
Versions: 1 2 3 4 5 6 7 8 9 10 11 12 13 14 15 16 17 18 19 20 21 22 23 24 25 26 27 28 29

000
FTUS41 KILN 261451 AAA
TAFCVG
TAF AMD
KCVG 261451Z 2615/2718 25004KT P6SM BKN035
     FM262100 32005KT P6SM VCSH BKN040
      TEMPO 2622/2624 5SM -SHRA BR BKN030
     FM270100 02004KT P6SM SCT030 BKN150
     FM271200 05006KT P6SM SKC=

USA.gov is the U.S. government's official web portal to all federal, state and local government web resources and services.